Time;durP1;ratioP1;P1;durP2;ratioP2;P2;SDS_P1;SDS_P2;PMS_P1;PMS_P2;Temp;Humidity;BMP_temperature;BMP_pressure;BME280_temperature;BME280_humidity;BME280_pressure;Samples;Min_cycle;Max_cycle;Signal;HPM_P1;HPM_P2
2023/04/30 00:00:22;;;;;;;7.63;6.40;;;12.30;99.90;;;;;;5071944;28;20211;-40
2023/04/30 00:02:48;;;;;;;8.73;6.13;;;12.30;99.90;;;;;;5068150;28;20296;-39
2023/04/30 00:05:14;;;;;;;8.17;6.50;;;12.40;99.90;;;;;;5056923;28;20215;-39
2023/04/30 00:07:41;;;;;;;7.40;6.43;;;12.40;99.90;;;;;;5072218;28;20186;-40
2023/04/30 00:10:10;;;;;;;7.30;6.00;;;12.40;99.90;;;;;;5068041;28;20322;-40
2023/04/30 00:12:36;;;;;;;8.60;5.80;;;12.30;99.90;;;;;;5078035;28;20215;-38
2023/04/30 00:15:02;;;;;;;7.90;6.13;;;12.30;99.90;;;;;;5067912;28;20192;-40
2023/04/30 00:17:28;;;;;;;7.23;5.87;;;12.30;99.90;;;;;;5084827;28;20211;-40
2023/04/30 00:19:54;;;;;;;8.60;6.27;;;12.30;99.90;;;;;;5069807;28;20185;-39
2023/04/30 00:22:20;;;;;;;7.20;5.87;;;12.30;99.90;;;;;;5071759;28;20219;-39
2023/04/30 00:24:45;;;;;;;7.37;5.63;;;12.40;99.90;;;;;;5085323;28;20191;-39
2023/04/30 00:27:11;;;;;;;7.10;5.70;;;12.40;99.90;;;;;;5072567;28;20172;-42
2023/04/30 00:29:37;;;;;;;7.77;5.93;;;12.40;99.90;;;;;;5091267;28;20189;-40
2023/04/30 00:32:03;;;;;;;6.30;5.23;;;12.40;99.90;;;;;;5063466;28;20174;-39
2023/04/30 00:34:29;;;;;;;6.13;5.53;;;12.40;99.90;;;;;;5073278;28;20197;-43
2023/04/30 00:36:55;;;;;;;7.40;6.07;;;12.40;99.90;;;;;;5087931;28;20218;-39
2023/04/30 00:39:21;;;;;;;6.77;5.27;;;12.40;99.90;;;;;;5062519;28;20265;-39
2023/04/30 00:41:46;;;;;;;6.33;5.67;;;12.30;99.90;;;;;;5052372;28;20204;-39
2023/04/30 00:44:12;;;;;;;7.97;5.70;;;12.40;99.90;;;;;;5061331;28;20181;-39
2023/04/30 00:46:38;;;;;;;6.80;6.10;;;12.40;99.90;;;;;;5065256;28;20190;-39
2023/04/30 00:49:04;;;;;;;7.83;5.70;;;12.30;99.90;;;;;;5074761;28;20248;-38
2023/04/30 00:51:32;;;;;;;7.50;6.07;;;12.30;99.90;;;;;;5070415;28;20208;-41
2023/04/30 00:54:04;;;;;;;6.80;6.10;;;12.30;99.90;;;;;;5067395;28;20188;-39
2023/04/30 00:56:31;;;;;;;6.97;5.47;;;12.30;99.90;;;;;;5070204;28;20188;-38
2023/04/30 00:58:56;;;;;;;6.23;5.63;;;12.30;99.90;;;;;;5042299;28;20195;-39
2023/04/30 01:01:24;;;;;;;6.50;5.77;;;12.20;99.90;;;;;;5086575;28;20215;-39
2023/04/30 01:03:51;;;;;;;6.10;5.50;;;12.20;99.90;;;;;;5070260;28;20722;-39
2023/04/30 01:06:17;;;;;;;6.40;5.53;;;12.20;99.90;;;;;;5083084;28;20181;-40
2023/04/30 01:08:43;;;;;;;7.27;5.67;;;12.20;99.90;;;;;;5069688;28;20191;-41
2023/04/30 01:11:16;;;;;;;6.53;5.83;;;12.20;99.90;;;;;;5068080;28;20200;-40
2023/04/30 01:14:11;;;;;;;6.90;5.17;;;12.20;99.90;;;;;;5061944;28;20187;-41
2023/04/30 01:16:50;;;;;;;6.63;5.53;;;12.20;99.90;;;;;;5085363;28;20264;-40
2023/04/30 01:19:31;;;;;;;5.70;5.10;;;12.20;99.90;;;;;;5057242;28;20252;-39
2023/04/30 01:22:01;;;;;;;7.17;6.07;;;12.20;99.90;;;;;;5059896;28;20215;-38
2023/04/30 01:25:05;;;;;;;5.73;5.10;;;12.20;99.90;;;;;;5061480;28;20196;-38
2023/04/30 01:28:01;;;;;;;5.80;5.20;;;12.30;99.90;;;;;;5069097;28;20185;-38
2023/04/30 01:30:29;;;;;;;7.57;5.27;;;12.30;99.90;;;;;;5072904;28;20260;-40
2023/04/30 01:32:55;;;;;;;7.00;5.60;;;12.30;99.90;;;;;;5084294;28;20185;-41
2023/04/30 01:35:35;;;;;;;6.63;5.87;;;12.20;99.90;;;;;;5089836;28;20189;-39
2023/04/30 01:38:10;;;;;;;7.60;5.80;;;12.20;99.90;;;;;;5088666;28;20194;-41
2023/04/30 01:40:57;;;;;;;6.57;5.87;;;12.10;99.90;;;;;;5086273;28;20307;-40
2023/04/30 01:43:39;;;;;;;6.10;5.50;;;12.10;99.90;;;;;;5066400;28;20212;-39
2023/04/30 01:46:23;;;;;;;6.83;5.63;;;12.00;99.90;;;;;;5083194;28;20183;-39
2023/04/30 01:49:16;;;;;;;7.73;5.83;;;12.00;99.90;;;;;;5060281;28;20180;-38
2023/04/30 01:51:47;;;;;;;6.80;5.80;;;12.00;99.90;;;;;;5066020;28;20288;-39
2023/04/30 01:54:43;;;;;;;6.20;5.60;;;12.10;99.90;;;;;;5084663;28;20179;-39
2023/04/30 01:57:34;;;;;;;8.30;5.37;;;12.10;99.90;;;;;;5060992;28;20179;-39
2023/04/30 02:00:00;;;;;;;7.23;5.30;;;12.10;99.90;;;;;;5074058;28;20206;-40
2023/04/30 02:02:25;;;;;;;6.20;5.00;;;12.20;99.90;;;;;;5080458;28;20278;-41
2023/04/30 02:04:51;;;;;;;8.27;5.30;;;12.20;99.90;;;;;;5058892;28;20189;-41
2023/04/30 02:07:36;;;;;;;7.30;5.40;;;12.20;99.90;;;;;;5077691;28;20179;-39
2023/04/30 02:10:04;;;;;;;7.33;5.50;;;12.10;99.90;;;;;;5086359;28;20216;-40
2023/04/30 02:12:29;;;;;;;5.83;5.10;;;12.10;99.90;;;;;;5085127;28;20251;-38
2023/04/30 02:14:55;;;;;;;5.93;4.67;;;12.00;99.90;;;;;;5074397;28;20192;-38
2023/04/30 02:17:21;;;;;;;6.70;5.57;;;11.90;99.90;;;;;;5069422;28;20191;-40
2023/04/30 02:19:47;;;;;;;6.03;5.23;;;12.00;99.90;;;;;;5052017;28;20193;-40
2023/04/30 02:22:13;;;;;;;5.87;5.07;;;12.00;99.90;;;;;;5039588;28;20234;-39
2023/04/30 02:24:38;;;;;;;6.47;5.17;;;12.00;99.90;;;;;;5089941;28;20187;-39
2023/04/30 02:27:04;;;;;;;6.50;5.40;;;12.00;99.90;;;;;;5064621;28;20208;-38
2023/04/30 02:29:30;;;;;;;7.70;5.57;;;12.00;99.90;;;;;;5090407;28;20190;-41
2023/04/30 02:31:58;;;;;;;6.77;5.20;;;12.00;99.90;;;;;;5056741;28;20272;-38
2023/04/30 02:34:24;;;;;;;6.37;5.50;;;11.90;99.90;;;;;;5051989;28;20176;-41
2023/04/30 02:36:50;;;;;;;6.30;5.20;;;11.90;99.90;;;;;;5088197;28;20178;-43
2023/04/30 02:39:15;;;;;;;6.03;5.33;;;11.90;99.90;;;;;;5087394;28;20185;-39
2023/04/30 02:41:41;;;;;;;6.37;5.37;;;11.90;99.90;;;;;;5060667;28;20202;-38
2023/04/30 02:44:07;;;;;;;6.37;4.97;;;11.90;99.90;;;;;;5078351;28;20211;-39
2023/04/30 02:46:33;;;;;;;7.83;5.30;;;11.90;99.90;;;;;;5073321;28;20207;-39
2023/04/30 02:48:59;;;;;;;6.60;5.37;;;11.90;99.90;;;;;;5080694;28;20179;-42
2023/04/30 02:51:25;;;;;;;6.77;5.60;;;11.80;99.90;;;;;;5069918;28;20218;-39
2023/04/30 02:53:51;;;;;;;5.57;5.07;;;11.80;99.90;;;;;;5045980;28;20196;-39
2023/04/30 02:56:17;;;;;;;6.90;5.03;;;11.80;99.90;;;;;;5069691;28;20184;-38
2023/04/30 02:58:43;;;;;;;5.43;4.73;;;11.80;99.90;;;;;;5067710;28;20188;-39
2023/04/30 03:01:09;;;;;;;8.13;5.40;;;11.90;99.90;;;;;;5059400;28;20218;-43
2023/04/30 03:03:35;;;;;;;7.50;5.83;;;11.80;99.90;;;;;;5079104;28;20223;-41
2023/04/30 03:06:00;;;;;;;7.93;5.73;;;11.90;99.90;;;;;;5061150;28;20179;-39
2023/04/30 03:08:26;;;;;;;7.43;5.27;;;11.90;99.90;;;;;;5063301;28;20180;-38
2023/04/30 03:10:52;;;;;;;7.17;5.27;;;11.80;99.90;;;;;;5068359;28;20210;-38
2023/04/30 03:13:18;;;;;;;7.67;5.50;;;11.90;99.90;;;;;;5077115;28;20191;-40
2023/04/30 03:15:44;;;;;;;6.50;5.20;;;11.90;99.90;;;;;;5072980;28;20283;-40
2023/04/30 03:18:11;;;;;;;5.60;4.87;;;11.90;99.90;;;;;;5077916;28;20275;-41
2023/04/30 03:20:37;;;;;;;7.23;5.20;;;11.80;99.90;;;;;;5036989;28;20298;-39
2023/04/30 03:23:03;;;;;;;7.27;5.70;;;11.80;99.90;;;;;;5078018;28;20207;-39
2023/04/30 03:25:28;;;;;;;8.40;6.07;;;11.70;99.90;;;;;;5084483;28;20196;-38
2023/04/30 03:27:55;;;;;;;6.93;5.63;;;11.70;99.90;;;;;;5065480;28;20209;-39
2023/04/30 03:30:21;;;;;;;7.93;6.37;;;11.70;99.90;;;;;;5086686;28;20201;-39
2023/04/30 03:32:47;;;;;;;8.50;5.83;;;11.60;99.90;;;;;;5068162;28;20185;-39
2023/04/30 03:35:13;;;;;;;7.20;5.87;;;11.60;99.90;;;;;;5090314;28;20269;-38
2023/04/30 03:37:39;;;;;;;9.73;6.53;;;11.60;99.90;;;;;;5058268;28;20194;-38
2023/04/30 03:40:05;;;;;;;7.57;5.63;;;11.50;99.90;;;;;;5061647;28;20253;-39
2023/04/30 03:42:31;;;;;;;8.80;6.03;;;11.40;99.90;;;;;;5056125;28;20207;-41
2023/04/30 03:44:57;;;;;;;9.17;6.30;;;11.40;99.90;;;;;;5090474;28;20176;-39
2023/04/30 03:47:23;;;;;;;8.17;6.33;;;11.40;99.90;;;;;;5082636;28;20226;-41
2023/04/30 03:49:53;;;;;;;8.00;6.53;;;11.40;99.90;;;;;;5052199;28;20269;-38
2023/04/30 03:52:21;;;;;;;7.30;6.50;;;11.40;99.90;;;;;;5060942;28;20736;-38
2023/04/30 03:54:47;;;;;;;7.47;6.20;;;11.40;99.90;;;;;;5078273;28;20282;-43
2023/04/30 03:57:14;;;;;;;7.77;6.63;;;11.40;99.90;;;;;;5061326;28;20338;-39
2023/04/30 03:59:42;;;;;;;8.93;7.03;;;11.30;99.90;;;;;;5089228;28;20185;-39
2023/04/30 04:02:09;;;;;;;8.37;6.50;;;11.20;99.90;;;;;;5062165;28;20256;-41
2023/04/30 04:04:35;;;;;;;8.20;5.93;;;11.10;99.90;;;;;;5059067;28;20189;-40
2023/04/30 04:07:02;;;;;;;8.10;6.53;;;11.10;99.90;;;;;;5061065;28;20181;-42
2023/04/30 04:09:28;;;;;;;8.00;6.10;;;11.10;99.90;;;;;;5054246;28;20186;-40
2023/04/30 04:11:54;;;;;;;9.07;6.67;;;11.10;99.90;;;;;;5085411;28;20223;-40
2023/04/30 04:14:20;;;;;;;8.33;6.50;;;11.20;99.90;;;;;;5072197;28;20207;-39
2023/04/30 04:16:46;;;;;;;8.60;6.73;;;11.20;99.90;;;;;;5084706;28;20174;-41
2023/04/30 04:19:12;;;;;;;10.53;6.50;;;11.20;99.90;;;;;;5078152;28;20207;-40
2023/04/30 04:21:38;;;;;;;7.93;6.40;;;11.10;99.90;;;;;;5054210;28;20222;-38
2023/04/30 04:24:11;;;;;;;9.63;6.80;;;11.10;99.90;;;;;;5084371;28;20209;-42
2023/04/30 04:26:37;;;;;;;8.43;7.17;;;11.10;99.90;;;;;;5061928;28;20187;-41
2023/04/30 04:29:03;;;;;;;8.63;6.87;;;11.10;99.90;;;;;;5052614;28;20197;-42
2023/04/30 04:31:30;;;;;;;8.57;6.83;;;11.00;99.90;;;;;;5069442;28;20260;-38
2023/04/30 04:33:59;;;;;;;8.60;7.03;;;11.00;99.90;;;;;;5055022;28;20212;-40
2023/04/30 04:36:30;;;;;;;8.87;7.00;;;11.10;99.90;;;;;;5049806;28;20184;-44
2023/04/30 04:39:00;;;;;;;9.97;7.17;;;11.00;99.90;;;;;;5054179;28;20195;-38
2023/04/30 04:41:55;;;;;;;9.67;6.87;;;11.10;99.90;;;;;;5055034;28;20193;-40
2023/04/30 04:44:50;;;;;;;8.07;6.77;;;11.20;99.90;;;;;;5053073;28;20201;-39
2023/04/30 04:47:21;;;;;;;7.23;6.40;;;11.20;99.90;;;;;;5070796;28;20189;-38
2023/04/30 04:49:48;;;;;;;9.43;7.43;;;11.20;99.90;;;;;;5072595;28;20188;-42
2023/04/30 04:52:14;;;;;;;7.47;6.33;;;11.30;99.90;;;;;;5052883;28;20177;-38
2023/04/30 04:54:40;;;;;;;8.77;7.00;;;11.30;99.90;;;;;;5072455;28;20194;-38
2023/04/30 04:57:06;;;;;;;8.20;6.47;;;11.30;99.90;;;;;;5082370;28;20182;-41
2023/04/30 04:59:31;;;;;;;9.63;6.73;;;11.40;99.90;;;;;;5078547;28;20178;-39
2023/04/30 05:01:57;;;;;;;7.53;6.47;;;11.40;99.90;;;;;;5065817;28;20203;-39
2023/04/30 05:04:23;;;;;;;7.80;6.70;;;11.40;99.90;;;;;;5072974;28;20187;-39
2023/04/30 05:06:49;;;;;;;10.30;6.57;;;11.40;99.90;;;;;;5089318;28;20274;-41
2023/04/30 05:09:15;;;;;;;7.80;6.70;;;11.40;99.90;;;;;;5065279;28;20215;-42
2023/04/30 05:11:41;;;;;;;8.30;7.10;;;11.40;99.90;;;;;;5067533;28;20200;-39
2023/04/30 05:14:07;;;;;;;8.20;6.50;;;11.30;99.90;;;;;;5067715;28;20188;-39
2023/04/30 05:16:32;;;;;;;7.93;6.67;;;11.40;99.90;;;;;;5069596;28;20184;-41
2023/04/30 05:18:58;;;;;;;7.97;6.77;;;11.40;99.90;;;;;;5057738;28;20182;-38
2023/04/30 05:21:25;;;;;;;9.07;7.13;;;11.40;99.90;;;;;;5055607;28;20227;-39
2023/04/30 05:23:51;;;;;;;8.37;6.83;;;11.40;99.90;;;;;;5066737;28;20214;-39
2023/04/30 05:26:17;;;;;;;9.23;7.10;;;11.40;99.90;;;;;;5068349;28;20231;-40
2023/04/30 05:28:42;;;;;;;8.23;6.73;;;11.50;99.90;;;;;;5091846;28;20176;-38
2023/04/30 05:31:08;;;;;;;8.40;7.07;;;11.60;99.90;;;;;;5093939;28;20230;-39
2023/04/30 05:33:35;;;;;;;8.80;6.97;;;11.50;99.90;;;;;;5088604;28;20177;-38
2023/04/30 05:36:01;;;;;;;9.57;7.13;;;11.60;99.90;;;;;;5055572;28;20199;-39
2023/04/30 05:38:27;;;;;;;7.50;6.77;;;11.70;99.90;;;;;;5079048;28;20180;-38
2023/04/30 05:40:53;;;;;;;8.13;6.93;;;11.60;99.90;;;;;;5064724;28;20205;-38
2023/04/30 05:43:19;;;;;;;7.80;7.00;;;11.70;99.90;;;;;;5081760;28;20215;-40
2023/04/30 05:45:45;;;;;;;8.47;6.57;;;11.80;99.90;;;;;;5074670;28;20199;-38
2023/04/30 05:48:10;;;;;;;8.83;7.40;;;11.80;99.90;;;;;;5055182;28;20188;-38
2023/04/30 05:50:36;;;;;;;8.60;7.70;;;11.90;99.90;;;;;;5054958;28;20288;-40
2023/04/30 05:53:02;;;;;;;10.97;7.20;;;11.90;99.90;;;;;;5078121;28;20185;-46
2023/04/30 05:55:28;;;;;;;8.33;6.63;;;11.90;99.90;;;;;;5082123;28;20210;-39
2023/04/30 05:57:54;;;;;;;8.33;6.97;;;12.00;99.90;;;;;;5072993;28;20196;-38
2023/04/30 06:00:20;;;;;;;10.53;7.47;;;12.00;99.90;;;;;;5063575;28;20211;-38
2023/04/30 06:02:46;;;;;;;8.53;7.23;;;12.20;99.90;;;;;;5082422;28;20207;-38
2023/04/30 06:05:11;;;;;;;8.97;8.07;;;12.30;99.90;;;;;;5067593;28;20182;-38
2023/04/30 06:07:37;;;;;;;8.30;6.67;;;12.40;99.90;;;;;;5064681;28;20194;-38
2023/04/30 06:10:04;;;;;;;9.20;7.03;;;12.50;99.90;;;;;;5092764;28;20210;-42
2023/04/30 06:12:30;;;;;;;8.17;7.30;;;12.60;99.90;;;;;;5090612;28;20180;-38
2023/04/30 06:14:56;;;;;;;8.27;7.30;;;12.70;99.90;;;;;;5091400;28;20255;-38
2023/04/30 06:17:22;;;;;;;7.37;6.30;;;12.90;99.90;;;;;;5091990;28;20275;-38
2023/04/30 06:19:47;;;;;;;8.57;6.87;;;12.80;99.90;;;;;;5075934;28;20212;-38
2023/04/30 06:22:13;;;;;;;8.13;6.60;;;13.00;99.90;;;;;;5057612;28;20216;-39
2023/04/30 06:24:39;;;;;;;9.13;7.00;;;13.10;99.90;;;;;;5065694;28;20179;-43
2023/04/30 06:27:05;;;;;;;10.63;7.13;;;13.20;99.90;;;;;;5067713;28;20177;-38
2023/04/30 06:29:31;;;;;;;7.43;6.43;;;13.10;99.90;;;;;;5065194;28;20263;-38
2023/04/30 06:31:56;;;;;;;7.83;6.23;;;13.20;99.90;;;;;;5089501;28;20227;-38
2023/04/30 06:34:22;;;;;;;7.67;6.70;;;13.30;99.90;;;;;;5071153;28;20215;-38
2023/04/30 06:36:48;;;;;;;8.53;7.17;;;13.40;99.90;;;;;;5090610;28;20179;-38
2023/04/30 06:39:15;;;;;;;7.73;6.90;;;13.40;99.90;;;;;;5069645;28;20216;-39
2023/04/30 06:41:41;;;;;;;7.80;6.70;;;13.50;99.90;;;;;;5090577;28;20204;-39
2023/04/30 06:44:08;;;;;;;7.67;6.77;;;13.60;99.90;;;;;;5060047;28;20277;-38
2023/04/30 06:46:34;;;;;;;8.27;6.63;;;13.70;99.90;;;;;;5061972;28;20197;-38
2023/04/30 06:49:00;;;;;;;7.80;6.63;;;13.80;99.90;;;;;;5054318;28;20181;-38
2023/04/30 06:51:26;;;;;;;8.63;6.73;;;13.90;99.90;;;;;;5070895;28;20247;-39
2023/04/30 06:53:52;;;;;;;7.10;6.17;;;13.90;99.90;;;;;;5066106;28;20269;-38
2023/04/30 06:56:20;;;;;;;7.20;6.40;;;14.00;99.90;;;;;;5090866;28;20191;-38
2023/04/30 06:58:45;;;;;;;7.40;6.63;;;14.00;99.90;;;;;;5074477;28;20177;-39
2023/04/30 07:01:11;;;;;;;9.03;6.93;;;14.10;99.90;;;;;;5073790;28;20211;-39
2023/04/30 07:03:37;;;;;;;8.53;7.10;;;14.10;99.90;;;;;;5090761;28;20210;-38
2023/04/30 07:06:04;;;;;;;7.97;6.80;;;14.10;99.90;;;;;;5074054;28;20180;-38
2023/04/30 07:08:29;;;;;;;8.00;6.77;;;14.10;99.90;;;;;;5092100;28;20185;-38
2023/04/30 07:10:56;;;;;;;7.57;6.77;;;14.10;99.90;;;;;;5078143;28;20209;-38
2023/04/30 07:13:21;;;;;;;8.50;6.90;;;14.20;99.90;;;;;;5091063;28;20192;-38
2023/04/30 07:15:47;;;;;;;7.20;5.87;;;14.20;99.90;;;;;;5073483;28;20321;-39
2023/04/30 07:18:13;;;;;;;6.70;6.00;;;14.30;99.90;;;;;;5085338;28;20181;-38
2023/04/30 07:20:39;;;;;;;7.70;6.90;;;14.40;99.90;;;;;;5041394;28;20248;-39
2023/04/30 07:23:04;;;;;;;7.57;6.43;;;14.50;99.90;;;;;;5069904;28;20232;-38
2023/04/30 07:25:31;;;;;;;8.17;6.77;;;14.50;99.90;;;;;;5070714;28;20204;-38
2023/04/30 07:27:57;;;;;;;6.70;6.00;;;14.60;99.90;;;;;;5073555;28;20177;-38
2023/04/30 07:30:22;;;;;;;7.03;6.13;;;14.70;99.90;;;;;;5090356;28;20200;-40
2023/04/30 07:32:49;;;;;;;7.40;6.53;;;14.80;99.90;;;;;;5089774;28;20275;-38
2023/04/30 07:35:15;;;;;;;6.90;6.10;;;14.80;99.90;;;;;;5090478;28;20184;-39
2023/04/30 07:37:42;;;;;;;6.50;5.90;;;14.90;99.90;;;;;;5073583;28;20267;-39
2023/04/30 07:40:11;;;;;;;6.70;5.73;;;15.00;99.90;;;;;;5073438;28;20254;-38
2023/04/30 07:42:46;;;;;;;7.37;6.10;;;15.00;99.90;;;;;;5091529;28;20201;-38
2023/04/30 07:45:12;;;;;;;6.47;5.73;;;15.10;99.90;;;;;;5067217;28;20189;-39
2023/04/30 07:47:38;;;;;;;6.40;5.80;;;15.20;99.90;;;;;;5054436;28;20196;-42
2023/04/30 07:50:05;;;;;;;6.57;5.80;;;15.30;99.90;;;;;;5054324;28;20194;-39
2023/04/30 07:52:30;;;;;;;6.90;5.70;;;15.30;99.90;;;;;;5078016;28;20288;-38
2023/04/30 07:54:56;;;;;;;8.03;5.77;;;15.40;99.90;;;;;;5090054;28;20248;-38
2023/04/30 07:57:25;;;;;;;7.07;5.87;;;15.30;99.90;;;;;;5091326;28;20176;-39
2023/04/30 07:59:52;;;;;;;6.70;6.00;;;15.40;99.90;;;;;;5072759;28;20183;-39
2023/04/30 08:02:17;;;;;;;7.83;6.20;;;15.50;99.90;;;;;;5087348;28;20264;-40
2023/04/30 08:04:43;;;;;;;6.33;5.57;;;15.50;99.90;;;;;;5071186;28;20269;-38
2023/04/30 08:07:09;;;;;;;7.43;5.63;;;15.60;99.90;;;;;;5073764;28;20208;-38
2023/04/30 08:09:35;;;;;;;7.40;6.33;;;15.80;99.90;;;;;;5071788;28;20258;-38
2023/04/30 08:12:03;;;;;;;6.73;5.93;;;15.70;99.90;;;;;;5073409;28;20199;-38
2023/04/30 08:14:30;;;;;;;6.60;6.00;;;15.70;99.90;;;;;;5089645;28;20179;-39
2023/04/30 08:16:58;;;;;;;5.80;5.30;;;15.80;99.90;;;;;;5080508;28;20188;-41
2023/04/30 08:19:24;;;;;;;6.40;5.67;;;15.80;99.90;;;;;;5075137;28;20259;-39
2023/04/30 08:21:50;;;;;;;6.37;5.57;;;15.90;99.90;;;;;;5054638;28;20212;-39
2023/04/30 08:24:16;;;;;;;6.50;5.33;;;15.90;99.90;;;;;;5089497;28;20227;-39
2023/04/30 08:26:41;;;;;;;7.23;5.60;;;15.90;99.90;;;;;;5082005;28;20195;-39
2023/04/30 08:29:07;;;;;;;5.83;5.23;;;15.90;99.90;;;;;;5075992;28;20184;-38
2023/04/30 08:31:34;;;;;;;5.50;4.90;;;16.10;99.90;;;;;;5068081;28;20205;-39
2023/04/30 08:34:01;;;;;;;5.80;5.17;;;16.20;99.90;;;;;;5082362;28;20184;-38
2023/04/30 08:36:28;;;;;;;5.77;4.70;;;16.30;99.90;;;;;;5085395;28;20177;-38
2023/04/30 08:38:54;;;;;;;5.53;4.70;;;16.40;99.90;;;;;;5090594;28;20199;-39
2023/04/30 08:41:24;;;;;;;6.63;5.57;;;16.70;99.90;;;;;;5070738;28;20228;-38
2023/04/30 08:43:52;;;;;;;5.80;5.30;;;16.70;99.90;;;;;;5081657;28;20213;-39
2023/04/30 08:46:22;;;;;;;5.47;4.90;;;16.70;99.90;;;;;;5072540;28;20181;-39
2023/04/30 08:48:48;;;;;;;5.97;5.38;;;16.90;99.90;;;;;;5043627;28;20207;-40
2023/04/30 08:51:14;;;;;;;5.65;5.15;;;16.90;99.90;;;;;;5068940;28;20224;-40
2023/04/30 08:53:43;;;;;;;4.90;4.40;;;16.80;99.90;;;;;;5078912;28;20192;-38
2023/04/30 08:56:10;;;;;;;5.20;4.70;;;16.80;99.90;;;;;;5065881;28;20177;-39
2023/04/30 08:58:39;;;;;;;5.28;4.63;;;16.70;99.90;;;;;;5044275;28;20189;-38
2023/04/30 09:01:07;;;;;;;6.47;4.90;;;16.40;99.90;;;;;;5067494;28;20192;-38
2023/04/30 09:03:35;;;;;;;5.80;4.80;;;16.30;99.90;;;;;;5082665;28;20200;-37
2023/04/30 09:06:02;;;;;;;4.57;4.18;;;16.30;99.90;;;;;;5060076;28;20170;-37
2023/04/30 09:08:45;;;;;;;4.32;3.72;;;16.40;99.90;;;;;;5068361;28;20184;-38
2023/04/30 09:11:25;;;;;;;4.63;3.88;;;16.40;99.90;;;;;;5083522;28;20201;-38
2023/04/30 09:13:53;;;;;;;4.03;3.40;;;16.50;99.90;;;;;;5079691;28;20184;-37
2023/04/30 09:16:23;;;;;;;4.43;3.70;;;16.60;99.90;;;;;;5083899;28;20181;-40
2023/04/30 09:18:50;;;;;;;4.07;3.72;;;16.70;99.90;;;;;;5075565;28;20196;-39
2023/04/30 09:21:16;;;;;;;4.28;3.88;;;16.90;99.90;;;;;;5068437;28;20217;-42
2023/04/30 09:23:56;;;;;;;4.28;3.88;;;17.10;99.90;;;;;;5072325;28;20211;-39
2023/04/30 09:26:36;;;;;;;3.90;3.60;;;17.00;99.90;;;;;;5087645;28;20256;-41
2023/04/30 09:29:06;;;;;;;4.20;3.80;;;17.20;99.90;;;;;;5072167;28;20183;-39
2023/04/30 09:31:35;;;;;;;4.68;4.28;;;17.30;99.90;;;;;;5068858;28;20201;-39
2023/04/30 09:34:05;;;;;;;3.72;3.42;;;17.40;99.90;;;;;;5072633;28;20176;-39
2023/04/30 09:36:33;;;;;;;3.65;3.35;;;17.40;99.90;;;;;;5080206;28;20233;-41
2023/04/30 09:39:25;;;;;;;3.88;3.55;;;17.40;99.90;;;;;;5056107;28;20434;-38
2023/04/30 09:41:51;;;;;;;3.67;3.38;;;17.40;99.90;;;;;;5067997;28;20244;-37
2023/04/30 09:44:31;;;;;;;3.78;3.10;;;17.40;99.90;;;;;;5069623;28;20252;-37
2023/04/30 09:47:04;;;;;;;4.22;3.25;;;17.50;99.90;;;;;;5061653;28;20260;-37
2023/04/30 09:49:31;;;;;;;3.97;3.60;;;17.40;99.90;;;;;;5058385;28;20181;-36
2023/04/30 09:51:59;;;;;;;3.00;2.80;;;17.20;99.90;;;;;;5055044;28;20243;-37
2023/04/30 09:54:30;;;;;;;3.03;2.80;;;17.30;99.90;;;;;;5060054;28;20188;-39
2023/04/30 09:57:01;;;;;;;3.50;3.17;;;17.40;99.90;;;;;;5066980;28;20188;-37
2023/04/30 09:59:38;;;;;;;3.13;2.65;;;17.40;99.90;;;;;;5072803;28;20181;-36
2023/04/30 10:02:08;;;;;;;3.53;3.22;;;17.40;99.90;;;;;;5084541;28;20183;-37
2023/04/30 10:04:37;;;;;;;2.85;2.65;;;17.30;99.90;;;;;;5092253;28;20257;-36
2023/04/30 10:07:08;;;;;;;2.83;2.63;;;17.40;99.90;;;;;;5066115;28;20677;-37
2023/04/30 10:09:47;;;;;;;5.43;2.85;;;17.40;99.90;;;;;;5043977;28;20180;-36
2023/04/30 10:12:15;;;;;;;3.20;2.90;;;17.40;99.90;;;;;;5078395;28;20180;-36
2023/04/30 10:14:51;;;;;;;4.85;3.00;;;17.30;99.90;;;;;;5083434;28;20169;-40
2023/04/30 10:17:20;;;;;;;4.43;3.25;;;17.40;99.90;;;;;;5076140;28;20209;-39
2023/04/30 10:19:51;;;;;;;2.63;2.42;;;17.50;99.90;;;;;;5073699;28;20183;-36
2023/04/30 10:22:18;;;;;;;4.65;2.78;;;17.50;99.90;;;;;;5059231;28;20216;-38
2023/04/30 10:24:46;;;;;;;3.92;2.85;;;17.50;99.90;;;;;;5060821;28;20185;-37
2023/04/30 10:27:12;;;;;;;4.07;3.10;;;17.40;99.90;;;;;;5066373;28;20179;-37
2023/04/30 10:29:41;;;;;;;3.78;2.90;;;17.50;99.90;;;;;;5058576;28;20189;-37
2023/04/30 10:32:12;;;;;;;3.40;2.83;;;17.40;99.90;;;;;;5066229;28;20187;-44
2023/04/30 10:35:07;;;;;;;3.58;3.10;;;17.50;99.90;;;;;;5062838;28;20185;-40
2023/04/30 10:37:48;;;;;;;3.40;3.10;;;17.50;99.90;;;;;;5075399;28;20176;-39
2023/04/30 10:40:14;;;;;;;3.00;2.70;;;17.40;99.90;;;;;;5071308;28;20200;-40
2023/04/30 10:42:55;;;;;;;4.28;2.83;;;17.30;99.90;;;;;;5051494;28;20338;-40
2023/04/30 10:45:36;;;;;;;3.20;2.67;;;17.40;99.90;;;;;;5054771;28;20181;-39
2023/04/30 10:48:05;;;;;;;2.90;2.70;;;17.40;99.90;;;;;;5054353;28;20181;-41
2023/04/30 10:50:42;;;;;;;4.68;2.90;;;17.40;99.90;;;;;;5037235;28;20251;-40
2023/04/30 10:53:13;;;;;;;3.95;3.35;;;17.40;99.90;;;;;;5051637;28;20645;-39
2023/04/30 10:55:48;;;;;;;3.40;3.10;;;17.40;99.90;;;;;;5036280;28;20182;-41
2023/04/30 10:58:30;;;;;;;3.45;3.15;;;17.40;99.90;;;;;;5077294;28;20212;-40
2023/04/30 11:01:01;;;;;;;3.75;3.20;;;17.40;99.90;;;;;;5069869;28;20201;-39
2023/04/30 11:03:31;;;;;;;3.58;3.25;;;17.30;99.90;;;;;;5054075;28;20205;-43
2023/04/30 11:06:02;;;;;;;3.45;3.15;;;17.30;99.90;;;;;;5053558;28;20186;-41
2023/04/30 11:08:33;;;;;;;4.32;3.30;;;17.30;99.90;;;;;;5071559;28;20181;-39
2023/04/30 11:11:00;;;;;;;4.95;3.30;;;17.40;99.90;;;;;;5081578;28;20199;-40
2023/04/30 11:13:27;;;;;;;4.07;3.78;;;17.40;99.90;;;;;;5072096;28;20201;-38
2023/04/30 11:15:53;;;;;;;3.88;3.08;;;17.30;99.90;;;;;;5053434;28;20177;-38
2023/04/30 11:18:19;;;;;;;3.95;3.55;;;17.20;99.90;;;;;;5054164;28;20196;-38
2023/04/30 11:20:51;;;;;;;3.97;3.10;;;17.10;99.90;;;;;;5071145;28;20228;-39
2023/04/30 11:23:22;;;;;;;3.20;2.90;;;17.20;99.90;;;;;;5070877;28;20219;-38
2023/04/30 11:25:52;;;;;;;3.75;3.30;;;17.10;99.90;;;;;;5054109;28;20189;-38
2023/04/30 11:28:25;;;;;;;3.25;2.95;;;17.20;99.90;;;;;;5077609;28;20211;-38
2023/04/30 11:31:01;;;;;;;3.08;2.88;;;17.10;99.90;;;;;;5052148;28;20709;-44
2023/04/30 11:33:29;;;;;;;3.10;2.80;;;17.20;99.90;;;;;;5053990;28;20267;-40
2023/04/30 11:35:57;;;;;;;3.50;3.17;;;17.40;99.90;;;;;;5071493;28;20181;-38
2023/04/30 11:38:34;;;;;;;4.38;3.03;;;17.50;99.90;;;;;;5072770;28;20237;-42
2023/04/30 11:41:03;;;;;;;3.40;2.75;;;17.50;99.90;;;;;;5068209;28;20199;-41
2023/04/30 11:43:33;;;;;;;3.35;3.05;;;17.40;99.90;;;;;;5066496;28;20215;-41
2023/04/30 11:46:05;;;;;;;2.75;2.55;;;17.50;99.90;;;;;;5090060;28;20177;-39
2023/04/30 11:48:36;;;;;;;3.33;3.00;;;17.70;99.90;;;;;;5076158;28;20165;-38
2023/04/30 11:51:04;;;;;;;2.90;2.70;;;17.70;99.90;;;;;;5072125;28;20259;-39
2023/04/30 11:53:30;;;;;;;4.05;2.90;;;17.90;99.90;;;;;;5083688;28;20235;-40
2023/04/30 11:55:56;;;;;;;3.33;2.83;;;17.90;99.90;;;;;;5081389;28;20184;-38
2023/04/30 11:58:22;;;;;;;2.80;2.60;;;18.10;99.90;;;;;;5073443;28;20207;-39
2023/04/30 12:00:50;;;;;;;3.13;2.65;;;18.40;99.90;;;;;;5070872;28;20300;-40
2023/04/30 12:03:16;;;;;;;3.33;2.83;;;18.60;99.90;;;;;;5081560;28;20275;-39
2023/04/30 12:05:42;;;;;;;4.10;3.13;;;18.70;99.90;;;;;;5090940;28;20359;-42
2023/04/30 12:08:08;;;;;;;3.40;2.92;;;18.90;99.90;;;;;;5078178;28;20256;-38
2023/04/30 12:10:35;;;;;;;3.35;3.05;;;19.00;99.90;;;;;;5068243;28;20212;-38
2023/04/30 12:13:01;;;;;;;3.65;2.80;;;19.10;99.90;;;;;;5071590;28;20189;-39
2023/04/30 12:15:28;;;;;;;2.80;2.60;;;19.10;99.90;;;;;;5089936;28;20191;-41
2023/04/30 12:17:56;;;;;;;3.60;2.47;;;19.10;99.90;;;;;;5088317;28;20268;-44
2023/04/30 12:20:25;;;;;;;2.80;2.60;;;18.80;99.90;;;;;;5074342;28;20232;-38
2023/04/30 12:22:51;;;;;;;3.05;2.60;;;19.00;99.90;;;;;;5086779;28;20235;-41
2023/04/30 12:25:20;;;;;;;2.58;2.38;;;19.30;99.90;;;;;;5089734;28;20273;-45
2023/04/30 12:27:52;;;;;;;3.70;2.92;;;19.50;99.90;;;;;;5071716;28;20264;-47
2023/04/30 12:30:29;;;;;;;3.20;2.90;;;19.20;99.90;;;;;;5077252;28;20201;-40
2023/04/30 12:32:59;;;;;;;3.35;3.05;;;18.80;99.90;;;;;;5068730;28;20268;-44
2023/04/30 12:35:27;;;;;;;2.88;2.67;;;18.70;99.90;;;;;;5075583;28;20188;-45
2023/04/30 12:38:02;;;;;;;3.00;2.70;;;19.10;99.90;;;;;;5090307;28;20180;-41
2023/04/30 12:40:28;;;;;;;3.97;2.92;;;19.70;99.90;;;;;;5066293;28;20219;-42
2023/04/30 12:43:07;;;;;;;3.00;2.63;;;20.10;99.90;;;;;;5069428;28;20208;-40
2023/04/30 12:45:45;;;;;;;3.38;2.85;;;19.70;99.90;;;;;;5089544;28;20184;-40
2023/04/30 12:48:12;;;;;;;2.80;2.35;;;19.90;99.90;;;;;;5091034;28;20169;-38
2023/04/30 12:50:46;;;;;;;3.05;2.85;;;20.00;99.90;;;;;;5073224;28;20201;-42
2023/04/30 12:53:11;;;;;;;2.70;2.50;;;20.20;99.90;;;;;;5068264;28;20192;-40